M I D A S
Marine Information and Data Acquisition System
Tripno 61 of the Zeeleeuw from 2001-08-29 06:08:12 to 2001-08-29 16:50:04
Back to CruiseResearch ActivitiesStationsMapUnderway DataData graphs

EquipmentUnitsComment
TimeDGPSUTC
LatitudeDGPSDM.mWGS84
LongitudeDGPSDM.mWGS84
HeadingGyrodeg 
SOGDGPSknotsSpeed over ground
COGDGPSdegCourse over ground
DepthEcho soundermeters200 kHz
Missing or incorrect values are displayed as -999
Navigation data collected by the RV Zeeleeuw from 2001-08-29 06:08:12 to 2001-08-29 16:50:04
Time Latitude Longitude Heading SOG COG Depth
2001-08-29 06:09:17 51°13.676 2°55.924 1   343.8 -999
2001-08-29 06:10:17 51°13.677 2°55.924 359.3   50.4 -999
2001-08-29 06:11:17 51°13.677 2°55.924 0.3   230.6 -999
2001-08-29 06:12:17 51°13.677 2°55.923 0.3   32.7 -999
2001-08-29 06:13:17 51°13.677 2°55.923 0.5   10.2 -999
2001-08-29 06:14:17 51°13.678 2°55.923 359.3   31.4 -999
2001-08-29 06:15:17 51°13.678 2°55.922 359.8   102.4 -999
2001-08-29 06:16:17 51°13.678 2°55.922 0.8   354.1 -999
2001-08-29 06:17:17 51°13.678 2°55.922 0.7   347 -999
2001-08-29 06:18:17 51°13.678 2°55.922 0.8   346.1 -999
2001-08-29 06:19:17 51°13.677 2°55.922 0.2   330.5 -999
2001-08-29 06:20:17 51°13.677 2°55.922 0.7   357.4 -999
2001-08-29 06:21:17 51°13.677 2°55.922 359.7   334.5 -999
2001-08-29 06:22:17 51°13.677 2°55.922 0.5   304.2 -999
2001-08-29 06:23:17 51°13.677 2°55.922 0.8   307.1 -999
2001-08-29 06:24:17 51°13.676 2°55.922 0.7   219 -999
2001-08-29 06:25:17 51°13.676 2°55.923 0.5   350.1 -999
2001-08-29 06:26:47 51°13.677 2°55.922 9.3   303.9 -999
2001-08-29 06:27:47 51°13.677 2°55.922 131.2   123.3 -999
2001-08-29 06:28:47 51°13.677 2°55.922 132.8   306.5 -999
2001-08-29 06:29:47 51°13.677 2°55.922 132   29.8 -999
2001-08-29 06:30:47 51°13.677 2°55.922 133.2   198.1 -999
2001-08-29 06:31:55 51°13.677 2°55.922 359.8   265.1 -999
2001-08-29 06:33:19 51°13.676 2°55.922 0.2   307.8 -999
2001-08-29 06:34:39 51°13.677 2°55.922 0.7   313 -999
2001-08-29 06:35:39 51°13.677 2°55.922 0.3   3.3 -999
2001-08-29 06:36:39 51°13.677 2°55.922 1.2   270.2 -999
2001-08-29 06:37:39 51°13.677 2°55.922 1.3   17.5 -999
2001-08-29 06:38:39 51°13.677 2°55.922 1.8   294.5 -999
2001-08-29 06:39:39 51°13.677 2°55.922 1.7   40.5 -999
2001-08-29 06:40:39 51°13.677 2°55.922 1.3   324.9 -999
2001-08-29 06:41:39 51°13.677 2°55.921 2.8   311.4 -999
2001-08-29 06:42:39 51°13.677 2°55.922 1.3   48.4 -999
2001-08-29 06:43:39 51°13.677 2°55.922 2.3   27.8 -999
2001-08-29 06:44:39 51°13.677 2°55.922 2.3   88.2 -999
2001-08-29 06:45:39 51°13.677 2°55.922 3.8   348.5 -999
2001-08-29 06:46:39 51°13.677 2°55.922 2.8   343.2 -999
2001-08-29 06:47:39 51°13.677 2°55.922 3.8   305.6 -999
2001-08-29 06:48:39 51°13.677 2°55.922 3.5   320.6 -999
2001-08-29 06:50:10 51°13.677 2°55.923 359.8   10.1 -999
2001-08-29 06:51:30 51°13.677 2°55.923 359.2   38.7 -999
2001-08-29 06:52:30 51°13.677 2°55.923 358.8   10.2 -999
2001-08-29 06:53:27 51°13.677 2°55.923 134.7   288.8 -999
2001-08-29 06:54:27 51°13.676 2°55.923 134.3   20.9 -999
2001-08-29 06:55:27 51°13.677 2°55.923 133.7   307.4 -999
2001-08-29 06:56:27 51°13.676 2°55.922 134.2   68.1 -999
2001-08-29 06:57:27 51°13.676 2°55.923 134.3   288.1 -999
2001-08-29 06:58:27 51°13.677 2°55.923 134.2   309.8 -999
2001-08-29 06:59:27 51°13.677 2°55.923 134   30.6 -999
2001-08-29 07:00:27 51°13.677 2°55.923 133.8   74.5 -999
2001-08-29 07:01:27 51°13.677 2°55.923 133.7   211.8 -999
2001-08-29 07:02:27 51°13.677 2°55.923 133.2   321.9 -999
2001-08-29 07:03:27 51°13.677 2°55.923 133   52.2 -999
2001-08-29 07:04:27 51°13.677 2°55.923 132.7   262.8 -999
2001-08-29 07:05:27 51°13.677 2°55.924 124.3 0.1 171.3 -999
2001-08-29 07:06:27 51°13.675 2°55.924 108.3 0.1 198.5 -999
2001-08-29 07:07:27 51°13.676 2°55.9 101.3 2.5 279.1 -999
2001-08-29 07:08:25 51°13.684 2°55.805 99 3.6 278 -999
2001-08-29 07:09:25 51°13.691 2°55.74 77.8 0.7 304.8 13
2001-08-29 07:10:25 51°13.705 2°55.751 20.2 0.7 207.8 14
2001-08-29 07:11:25 51°13.733 2°55.729 333.3 4.2 331.6 11.2
2001-08-29 07:12:25 51°13.812 2°55.653 334.7 6.3 331 12.1
2001-08-29 07:13:25 51°13.913 2°55.574 339.2 7.1 335.7 11.6
2001-08-29 07:14:25 51°14.024 2°55.497 339.2 7.3 335.8 11.5
2001-08-29 07:15:25 51°14.132 2°55.416 336.8 7.1 334.2 11.4
2001-08-29 07:16:25 51°14.236 2°55.314 323.5 7.4 321.9 11.6
2001-08-29 07:17:25 51°14.326 2°55.151 309.5 9.5 307 11.6
2001-08-29 07:18:25 51°14.454 2°54.965 324.2 11.3 324.8 11
2001-08-29 07:19:25 51°14.607 2°54.781 322.3 11.5 322.7 10.7
2001-08-29 07:20:25 51°14.768 2°54.609 325.7 11.7 326.6 10.7
2001-08-29 07:21:25 51°14.925 2°54.428 322 11.6 322.1 10.3
2001-08-29 07:22:25 51°15.088 2°54.262 329 11.7 328.6 10.2
2001-08-29 07:23:25 51°15.268 2°54.097 328.8 13.2 328.4 10.6
2001-08-29 07:24:25 51°15.46 2°53.911 331.3 13.6 330.1 11.3
2001-08-29 07:25:25 51°15.656 2°53.738 333.5 13.5 331.5 12.3
2001-08-29 07:26:25 51°15.853 2°53.571 333.2 13.3 332.9 12.8
2001-08-29 07:27:25 51°16.05 2°53.411 332.7 13.3 332.4 13.4
2001-08-29 07:28:25 51°16.252 2°53.264 336.3 13.5 336.2 13.7
2001-08-29 07:29:25 51°16.453 2°53.111 333.3 13.3 333.5 13.6
2001-08-29 07:30:25 51°16.65 2°52.95 331.5 13.4 331.5 12.9
2001-08-29 07:31:25 51°16.845 2°52.789 334.5 13.1 334.2 11
2001-08-29 07:32:25 51°17.045 2°52.641 336.5 13.4 336.3 11.6
2001-08-29 07:33:25 51°17.243 2°52.488 330.7 13.3 330.6 11.5
2001-08-29 07:34:25 51°17.438 2°52.319 334.7 13.4 334.2 11.9
2001-08-29 07:35:25 51°17.596 2°52.089 304 13.2 304.4 12
2001-08-29 07:36:25 51°17.699 2°51.78 299 13.3 299.2 11.7
2001-08-29 07:37:25 51°17.799 2°51.467 298.5 13.2 297.7 11.8
2001-08-29 07:38:25 51°17.89 2°51.147 294.5 13.2 294.3 12.7
2001-08-29 07:39:25 51°17.98 2°50.827 295 13.3 294.6 13.8
2001-08-29 07:40:25 51°18.073 2°50.508 294.5 13.2 293.9 14.6
2001-08-29 07:41:25 51°18.161 2°50.186 293.3 13.3 293 15.4
2001-08-29 07:42:25 51°18.252 2°49.866 293.7 13.2 293.5 15.4
2001-08-29 07:43:25 51°18.338 2°49.544 292.8 13.2 293.1 13.8
2001-08-29 07:44:25 51°18.428 2°49.227 294.7 13.1 294.7 12.2
2001-08-29 07:45:25 51°18.513 2°48.908 293.5 13.1 293 11.6
2001-08-29 07:46:25 51°18.597 2°48.586 292.3 13.1 291.5 12.6
2001-08-29 07:47:25 51°18.681 2°48.261 292 13.3 291.1 15.4
2001-08-29 07:48:25 51°18.773 2°47.941 299.5 13.3 298 17
2001-08-29 07:49:25 51°18.857 2°47.615 294.5 13.4 293.6 19.5
2001-08-29 07:50:25 51°18.942 2°47.286 292.8 13.5 291.9 20.8
2001-08-29 07:51:25 51°19.031 2°46.958 293.8 13.5 292.9 22.4
2001-08-29 07:52:25 51°19.117 2°46.628 293.8 13.4 292.2 22.8
2001-08-29 07:53:25 51°19.2 2°46.301 294.5 13.3 292.5 22.1
2001-08-29 07:54:25 51°19.286 2°45.975 294.2 13.3 293.1 19.4
2001-08-29 07:55:25 51°19.373 2°45.649 295.5 13.3 294.1 15.9
2001-08-29 07:56:25 51°19.459 2°45.325 294.5 13.1 293.1 12.8
2001-08-29 07:57:25 51°19.543 2°45.004 294.5 13.2 293.4 20.4
2001-08-29 07:58:25 51°19.635 2°44.681 295.3 13.4 294.5 23.5
2001-08-29 07:59:27 51°19.729 2°44.344 295 13.4 294.3 -999
2001-08-29 08:00:27 51°19.817 2°44.016 294.3 13.5 293.2 -999
2001-08-29 08:01:27 51°19.9 2°43.686 294.8 13.4 292.6 -999
2001-08-29 08:02:27 51°19.986 2°43.355 293.8 13.5 291.3 -999
2001-08-29 08:03:27 51°20.07 2°43.023 295 13.5 292.8 -999
2001-08-29 08:04:27 51°20.165 2°42.696 297.2 13.6 295.7 -999
2001-08-29 08:05:27 51°20.253 2°42.366 295.2 13.5 293.6 -999
2001-08-29 08:06:25 51°20.333 2°42.044 294 13.5 291.8 20.1
2001-08-29 08:07:25 51°20.425 2°41.721 298.3 13.4 296.5 22.8
2001-08-29 08:08:27 51°20.52 2°41.387 293.5 13.4 291.3 -999
2001-08-29 08:09:27 51°20.608 2°41.061 296 13.4 295 -999
2001-08-29 08:10:27 51°20.698 2°40.734 292.5 13.4 291.4 -999
2001-08-29 08:11:27 51°20.78 2°40.402 295 13.4 293.5 -999
2001-08-29 08:12:27 51°20.869 2°40.074 294.8 13.6 293 -999
2001-08-29 08:13:27 51°20.946 2°39.738 286.8 13.4 286.1 -999
2001-08-29 08:14:27 51°21.025 2°39.407 297.2 13.4 295.1 -999
2001-08-29 08:15:27 51°21.136 2°39.098 305.7 13.5 303.4 -999
2001-08-29 08:16:27 51°21.309 2°38.879 343 13.5 338.9 -999
2001-08-29 08:17:27 51°21.536 2°38.888 15.2 14 10.3 -999
2001-08-29 08:18:27 51°21.764 2°38.985 20.8 14.2 16.5 -999
2001-08-29 08:19:27 51°21.991 2°39.082 21.3 14.2 16.2 -999
2001-08-29 08:20:27 51°22.222 2°39.167 16 14.2 11.3 -999
2001-08-29 08:21:27 51°22.451 2°39.254 18.3 14.2 14.4 -999
2001-08-29 08:22:27 51°22.68 2°39.355 19 14.2 14.8 -999
2001-08-29 08:23:27 51°22.911 2°39.439 16.5 14.2 12.3 -999
2001-08-29 08:24:27 51°23.145 2°39.513 13.2 14.3 9 -999
2001-08-29 08:25:27 51°23.379 2°39.58 15.7 14.3 11.5 -999
2001-08-29 08:26:27 51°23.608 2°39.673 20.2 14.4 15.8 -999
2001-08-29 08:27:27 51°23.838 2°39.788 24.3 14.6 19.5 -999
2001-08-29 08:28:27 51°24.066 2°39.913 24.5 14.4 19.9 -999
2001-08-29 08:29:27 51°24.294 2°40.015 13.8 14.1 9.8 -999
2001-08-29 08:30:27 51°24.523 2°40.091 15.8 14.1 12 -999
2001-08-29 08:31:27 51°24.754 2°40.154 11.8 14 7.6 -999
2001-08-29 08:32:27 51°24.986 2°40.188 6 14 2.6 -999
2001-08-29 08:33:27 51°25.219 2°40.22 10 14.1 6 -999
2001-08-29 08:34:27 51°25.45 2°40.272 14.7 14 10.3 -999
2001-08-29 08:35:27 51°25.679 2°40.342 17.3 14 12.4 -999
2001-08-29 08:36:27 51°25.904 2°40.446 22.7 14.2 17.4 -999
2001-08-29 08:37:27 51°26.127 2°40.567 27.3 14.1 22.3 -999
2001-08-29 08:38:27 51°26.298 2°40.811 57.8 13.9 51.3 -999
2001-08-29 08:39:27 51°26.431 2°41.114 60.2 13.9 54.7 -999
2001-08-29 08:40:27 51°26.558 2°41.427 65.3 14 59.4 -999
2001-08-29 08:41:27 51°26.676 2°41.748 64 13.9 59 -999
2001-08-29 08:42:27 51°26.787 2°42.075 64.3 14.1 59.7 -999
2001-08-29 08:43:27 51°26.907 2°42.395 67.7 14 61.4 -999
2001-08-29 08:44:27 51°27.024 2°42.72 65.8 14.1 59.7 -999
2001-08-29 08:45:27 51°27.136 2°43.049 67.7 14 61.5 -999
2001-08-29 08:46:27 51°27.251 2°43.376 66.2 14.1 60.3 -999
2001-08-29 08:47:27 51°27.363 2°43.707 67.7 14.1 62.4 -999
2001-08-29 08:48:27 51°27.473 2°44.04 66.5 14.2 61.1 -999
2001-08-29 08:49:27 51°27.585 2°44.37 69 14 63.3 -999
2001-08-29 08:50:27 51°27.601 2°44.716 118.7 13 110.5 -999
2001-08-29 08:51:27 51°27.432 2°44.885 166.3 12.4 163 -999
2001-08-29 08:52:27 51°27.235 2°45.015 160 13.1 156.9 -999
2001-08-29 08:53:27 51°27.04 2°45.148 160 12.7 156.6 -999
2001-08-29 08:54:27 51°26.846 2°45.29 160.8 12.8 157.1 -999
2001-08-29 08:55:27 51°26.649 2°45.422 162.3 12.9 158.1 -999
2001-08-29 08:56:27 51°26.454 2°45.559 161.5 12.8 157.2 -999
2001-08-29 08:57:27 51°26.256 2°45.689 160 12.8 155.6 -999
2001-08-29 08:58:27 51°26.059 2°45.82 161.8 12.8 157.6 -999
2001-08-29 08:59:27 51°25.86 2°45.954 160 12.9 155.7 -999
2001-08-29 09:00:27 51°25.663 2°46.095 159.5 13 155.3 -999
2001-08-29 09:01:27 51°25.465 2°46.237 161.2 13.2 156.7 -999
2001-08-29 09:02:27 51°25.266 2°46.37 165.3 13 159.8 -999
2001-08-29 09:03:27 51°25.066 2°46.498 163.8 12.9 158.4 -999
2001-08-29 09:04:27 51°24.865 2°46.613 160.8 12.9 156.2 -999
2001-08-29 09:05:27 51°24.807 2°46.917 76.5 13.4 71.4 -999
2001-08-29 09:06:27 51°24.925 2°47.239 67 14.2 61 -999
2001-08-29 09:07:27 51°25.041 2°47.568 62.5 14.2 57.9 -999
2001-08-29 09:08:27 51°25.164 2°47.893 65.5 14.3 60 -999
2001-08-29 09:09:27 51°25.28 2°48.226 64.8 14.3 59.8 -999
2001-08-29 09:10:27 51°25.399 2°48.555 65 14.3 59.8 -999
2001-08-29 09:11:27 51°25.52 2°48.885 65.8 14.4 60.6 -999
2001-08-29 09:12:27 51°25.639 2°49.218 64.7 14.4 59.5 -999
2001-08-29 09:13:27 51°25.76 2°49.551 65.7 14.5 60.4 -999
2001-08-29 09:14:27 51°25.885 2°49.878 63 14.3 58.4 -999
2001-08-29 09:15:27 51°26.02 2°50.196 52 14.5 48.4 -999
2001-08-29 09:16:27 51°26.232 2°50.351 7.5 14.1 6.3 -999
2001-08-29 09:17:27 51°26.456 2°50.265 335.8 13.9 336.9 -999
2001-08-29 09:18:27 51°26.657 2°50.093 332.2 13.6 332.1 -999
2001-08-29 09:19:25 51°26.851 2°49.929 331.8 13.6 331.6 21.8
2001-08-29 09:20:27 51°27.059 2°49.752 333.8 13.6 333.5 -999
2001-08-29 09:21:27 51°27.262 2°49.591 332.3 13.6 332.8 -999
2001-08-29 09:22:27 51°27.462 2°49.419 332.3 13.7 333 -999
2001-08-29 09:23:27 51°27.668 2°49.258 333.5 13.8 334.5 -999
2001-08-29 09:24:27 51°27.873 2°49.098 332.7 13.7 333.4 -999
2001-08-29 09:25:27 51°28.078 2°48.937 334.5 13.7 335.1 -999
2001-08-29 09:26:27 51°28.287 2°48.786 332.5 13.7 333.7 -999
2001-08-29 09:27:27 51°28.493 2°48.629 333 13.8 334.1 -999
2001-08-29 09:28:27 51°28.703 2°48.632 37 13.6 33.1 -999
2001-08-29 09:29:27 51°28.804 2°48.962 71.7 14.3 67.9 -999
2001-08-29 09:30:27 51°28.895 2°49.317 72.3 14.4 68.4 -999
2001-08-29 09:31:27 51°28.981 2°49.677 72.2 14.5 68.3 -999
2001-08-29 09:32:27 51°29.078 2°50.03 70.2 14.4 66.2 -999
2001-08-29 09:33:27 51°29.174 2°50.384 69 14.4 65 -999
2001-08-29 09:34:27 51°29.267 2°50.74 70.5 14.5 66.3 -999
2001-08-29 09:35:27 51°29.366 2°51.094 69 14.6 65.3 -999
2001-08-29 09:36:27 51°29.458 2°51.449 72.3 14.4 67.8 -999
2001-08-29 09:37:27 51°29.544 2°51.806 74.3 14.3 69.7 -999
2001-08-29 09:38:27 51°29.619 2°52.165 85 13.9 77.8 -999
2001-08-29 09:39:27 51°29.533 2°52.458 152.3 12.4 145.2 -999
2001-08-29 09:40:27 51°29.345 2°52.615 153.3 12.8 148.1 -999
2001-08-29 09:41:27 51°29.153 2°52.773 156 13.1 152.3 -999
2001-08-29 09:42:27 51°28.961 2°52.931 158.5 12.9 154 -999
2001-08-29 09:43:27 51°28.763 2°53.076 160.3 13.2 156.8 -999
2001-08-29 09:44:27 51°28.574 2°53.242 156.2 12.8 150.5 -999
2001-08-29 09:45:27 51°28.382 2°53.4 157.5 13 152.2 -999
2001-08-29 09:46:25 51°28.196 2°53.552 158.2 12.8 153.8 22.5
2001-08-29 09:47:26 51°28.003 2°53.713 155.3 12.7 150 19.7
2001-08-29 09:48:25 51°27.822 2°53.875 160.5 12.7 152.9 21.2
2001-08-29 09:49:27 51°27.625 2°54.03 160.7 12.7 154.6 -999
2001-08-29 09:50:27 51°27.442 2°54.207 147.7 13.2 142.3 -999
2001-08-29 09:51:27 51°27.336 2°54.506 106.3 13.7 99.8 -999
2001-08-29 09:52:27 51°27.425 2°54.84 48.3 14.4 44 -999
2001-08-29 09:53:27 51°27.622 2°55.067 40.8 14.6 36 -999
2001-08-29 09:54:27 51°27.816 2°55.301 42.7 14.5 37.1 -999
2001-08-29 09:55:27 51°28.011 2°55.535 42.5 14.6 37.6 -999
2001-08-29 09:56:27 51°28.205 2°55.768 42.2 14.4 37.4 -999
2001-08-29 09:57:27 51°28.396 2°56.009 42.2 14.7 37.1 -999
2001-08-29 09:58:27 51°28.588 2°56.25 43 14.7 38.4 -999
2001-08-29 09:59:27 51°28.778 2°56.496 45 14.7 39.3 -999
2001-08-29 10:00:27 51°28.966 2°56.747 45.5 14.6 40.5 -999
2001-08-29 10:01:25 51°29.148 2°56.989 46 14.7 40.7 -999
2001-08-29 10:02:27 51°29.343 2°57.248 45.8 14.7 40.4 -999
2001-08-29 10:03:27 51°29.526 2°57.506 46.2 14.6 41.1 -999
2001-08-29 10:04:27 51°29.712 2°57.762 44.7 14.6 40 -999
2001-08-29 10:05:27 51°29.9 2°58.01 44.2 14.8 39 -999
2001-08-29 10:06:27 51°30.091 2°58.256 45 14.7 40.2 -999
2001-08-29 10:07:27 51°30.284 2°58.498 42.8 14.7 37.5 -999
2001-08-29 10:08:27 51°30.468 2°58.749 45 14.5 40.6 -999
2001-08-29 10:09:27 51°30.653 2°58.996 46.5 14.4 41.5 -999
2001-08-29 10:10:27 51°30.834 2°59.247 46.5 14.4 40.9 -999
2001-08-29 10:11:27 51°31.023 2°59.487 40.7 14.5 35.8 -999
2001-08-29 10:12:27 51°31.221 2°59.707 38.3 14.6 33.9 -999
2001-08-29 10:13:27 51°31.426 2°59.916 37.5 14.5 32.8 -999
2001-08-29 10:14:27 51°31.622 3°0.143 41.2 14.6 36.7 -999
2001-08-29 10:15:27 51°31.816 3°0.378 42.2 14.5 37.7 -999
2001-08-29 10:16:27 51°31.936 3°0.677 97 13.3 87.1 -999
2001-08-29 10:17:27 51°31.799 3°0.899 163.8 12.4 157.4 -999
2001-08-29 10:18:27 51°31.601 3°1.032 163 13 158.7 -999
2001-08-29 10:19:27 51°31.402 3°1.156 162.2 12.8 156.7 -999
2001-08-29 10:20:27 51°31.203 3°1.286 166.2 13 161.2 -999
2001-08-29 10:21:27 51°31.002 3°1.407 164.2 12.9 157 -999
2001-08-29 10:22:27 51°30.799 3°1.515 165.7 12.9 160.1 -999
2001-08-29 10:23:27 51°30.597 3°1.623 163.7 12.8 158.9 -999
2001-08-29 10:24:27 51°30.393 3°1.722 171.7 12.8 165.9 -999
2001-08-29 10:25:27 51°30.188 3°1.81 167.8 12.8 163.2 -999
2001-08-29 10:26:27 51°29.986 3°1.909 171.7 12.4 164.9 -999
2001-08-29 10:27:27 51°29.78 3°1.999 166.8 12.8 162.5 -999
2001-08-29 10:28:27 51°29.577 3°2.1 169.8 12.7 163.6 -999
2001-08-29 10:29:27 51°29.376 3°2.221 162.8 13 157.5 -999
2001-08-29 10:30:26 51°29.179 3°2.33 165.8 12.9 160 23.7
2001-08-29 10:31:25 51°28.981 3°2.429 168.7 12.7 162.1 23.9
2001-08-29 10:32:25 51°28.779 3°2.531 166.7 12.8 161.2 24.5
2001-08-29 10:33:25 51°28.575 3°2.631 169.2 13 163.7 25.1
2001-08-29 10:34:25 51°28.372 3°2.739 168.2 12.8 163 25.2
2001-08-29 10:35:25 51°28.169 3°2.838 167.8 12.8 162 24.8
2001-08-29 10:36:25 51°27.964 3°2.946 167 13 161.9 23.7
2001-08-29 10:37:25 51°27.758 3°3.038 171.3 12.8 166.6 21.1
2001-08-29 10:38:25 51°27.55 3°3.136 164.2 13 159.2 17.7
2001-08-29 10:39:25 51°27.348 3°3.25 165.7 12.9 161.4 15.1
2001-08-29 10:40:25 51°27.143 3°3.344 170.3 12.8 165.4 15.5
2001-08-29 10:41:25 51°26.946 3°3.476 162.7 12.5 157.4 14.5
2001-08-29 10:42:25 51°26.745 3°3.592 165.8 12.9 161.6 13
2001-08-29 10:43:25 51°26.546 3°3.709 155.3 12.9 151.1 12.1
2001-08-29 10:44:25 51°26.406 3°3.97 129.7 13 123 10.8
2001-08-29 10:45:25 51°26.296 3°4.28 125.8 13.5 119.5 12.4
2001-08-29 10:46:25 51°26.187 3°4.587 124 13.4 118.4 12.5
2001-08-29 10:47:25 51°26.075 3°4.894 124.8 13.4 119.6 12.7
2001-08-29 10:48:25 51°25.971 3°5.206 125.3 13.3 118.5 12.5
2001-08-29 10:49:25 51°25.863 3°5.517 125.8 13.6 119.6 12.2
2001-08-29 10:50:25 51°25.754 3°5.827 127 13.1 119.4 12.1
2001-08-29 10:51:25 51°25.647 3°6.141 122.5 13.5 117.2 11.8
2001-08-29 10:52:25 51°25.531 3°6.447 123.7 13.8 119.6 11.7
2001-08-29 10:53:25 51°25.425 3°6.762 126.3 13.3 120.4 11.8
2001-08-29 10:54:25 51°25.317 3°7.076 123.5 13.4 118.5 11
2001-08-29 10:55:25 51°25.204 3°7.383 125.5 13.2 119.6 10.1
2001-08-29 10:56:25 51°25.102 3°7.701 123.3 13.4 117.2 9.6
2001-08-29 10:57:26 51°24.994 3°8.022 124.2 13.3 118.5 9.8
2001-08-29 10:58:25 51°24.886 3°8.333 120 13.8 116.5 10.5
2001-08-29 10:59:25 51°24.799 3°8.67 112.8 13.8 109.2 10.8
2001-08-29 11:00:25 51°24.74 3°9.023 108.8 13.9 105 11
2001-08-29 11:01:25 51°24.677 3°9.377 106.5 13.8 102.8 11.4
2001-08-29 11:02:25 51°24.641 3°9.742 104.8 13.7 99.9 11.9
2001-08-29 11:03:25 51°24.586 3°10.103 108.7 14 105 12.6
2001-08-29 11:04:25 51°24.521 3°10.458 109.3 13.8 105.4 14.3
2001-08-29 11:05:25 51°24.456 3°10.816 112.3 14 108.4 16.4
2001-08-29 11:06:25 51°24.383 3°11.168 114.7 13.9 109.7 19
2001-08-29 11:07:25 51°24.32 3°11.526 104 14 100.9 19.8
2001-08-29 11:08:25 51°24.263 3°11.884 112.3 13.9 108.4 19.5
2001-08-29 11:09:25 51°24.183 3°12.23 113.2 13.9 109.6 18
2001-08-29 11:10:25 51°24.103 3°12.576 117 13.7 112.6 15.9
2001-08-29 11:11:27 51°24.019 3°12.929 110.5 13.7 106.4 14.2
2001-08-29 11:12:25 51°23.951 3°13.268 114.2 13.8 110.5 13.1
2001-08-29 11:13:25 51°23.864 3°13.605 117.8 13.7 114.3 12.4
2001-08-29 11:14:25 51°23.768 3°13.935 114.3 13.6 111.5 11.4
2001-08-29 11:15:25 51°23.709 3°14.287 96.8 13.8 94.5 11.3
2001-08-29 11:16:25 51°23.82 3°14.579 29 13.3 27.6 12.2
2001-08-29 11:17:25 51°23.991 3°14.457 295 12.1 296.3 12.2
2001-08-29 11:18:25 51°24.077 3°14.145 299.2 13.1 298.7 12.6
2001-08-29 11:19:25 51°24.224 3°13.886 321.5 13.3 321.1 15.5
2001-08-29 11:20:25 51°24.407 3°13.685 328.5 13.4 328.3 19.6
2001-08-29 11:21:25 51°24.596 3°13.49 326.5 13.5 326.6 18.8
2001-08-29 11:22:25 51°24.77 3°13.269 314 13.3 314.8 16.3
2001-08-29 11:23:25 51°24.899 3°12.987 299.7 13.1 300.1 14.5
2001-08-29 11:24:25 51°24.998 3°12.673 294.7 13.4 293.8 13.2
2001-08-29 11:25:25 51°25.087 3°12.342 296.8 13.6 295 12.2
2001-08-29 11:26:25 51°25.198 3°12.027 302.5 13.6 300.9 11.4
2001-08-29 11:27:25 51°25.317 3°11.717 303 13.6 301.7 11
2001-08-29 11:28:25 51°25.433 3°11.408 301.2 13.6 300.4 10.5
2001-08-29 11:29:25 51°25.557 3°11.106 301.3 13.5 300.9 9.5
2001-08-29 11:30:25 51°25.672 3°10.792 302.5 13.6 301.6 8.9
2001-08-29 11:31:25 51°25.793 3°10.487 303 13.7 302.6 8.8
2001-08-29 11:32:25 51°25.917 3°10.178 302.3 13.7 302.1 9
2001-08-29 11:33:25 51°26.046 3°9.874 307.8 13.9 306.7 9.5
2001-08-29 11:34:25 51°26.185 3°9.577 308 13.9 307.2 9.8
2001-08-29 11:35:25 51°26.321 3°9.277 305.7 14 305.7 10.3
2001-08-29 11:36:25 51°26.449 3°8.968 304.3 13.8 304.2 11.1
2001-08-29 11:37:25 51°26.575 3°8.659 304.5 13.8 304.1 12.2
2001-08-29 11:38:25 51°26.704 3°8.357 303.5 13.8 303.7 12.6
2001-08-29 11:39:25 51°26.828 3°8.051 301 13.7 301.2 12.5
2001-08-29 11:40:25 51°26.954 3°7.751 306.8 13.7 306.7 12.4
2001-08-29 11:41:25 51°27.084 3°7.453 304.3 13.7 304.7 12.7
2001-08-29 11:42:25 51°27.214 3°7.151 303.8 13.7 304.1 13.4
2001-08-29 11:43:25 51°27.343 3°6.851 305.2 13.8 305.4 14.3
2001-08-29 11:44:25 51°27.473 3°6.549 303.5 13.8 303.4 15
2001-08-29 11:45:25 51°27.605 3°6.254 317.5 13.5 315.2 15.2
2001-08-29 11:46:25 51°27.819 3°6.202 22.8 13.7 16.8 15.7
2001-08-29 11:47:31 51°27.97 3°6.5 71.8 13.6 65.1 15.9
2001-08-29 11:48:31 51°28.058 3°6.835 72.3 13.7 65.9 15.8
2001-08-29 11:49:31 51°28.155 3°7.164 68 13.7 61.6 15.7
2001-08-29 11:50:31 51°28.254 3°7.493 73.7 13.7 66.7 15.6
2001-08-29 11:51:31 51°28.344 3°7.828 71.8 13.6 65.5 15.3
2001-08-29 11:52:31 51°28.438 3°8.16 72.5 13.7 65.5 14.4
2001-08-29 11:53:31 51°28.524 3°8.496 74.2 13.6 67.7 14.9
2001-08-29 11:54:31 51°28.625 3°8.823 69.7 13.7 62.6 15.7
2001-08-29 11:55:31 51°28.714 3°9.158 74.2 13.7 67.1 16
2001-08-29 11:56:31 51°28.805 3°9.493 72.7 13.7 65.7 15.9
2001-08-29 11:57:31 51°28.906 3°9.819 69.3 13.6 62.4 15.7
2001-08-29 11:58:31 51°28.986 3°10.149 89.2 13 81.2 15.1
2001-08-29 11:59:31 51°28.894 3°10.428 144.7 12.3 140.7 14.2
2001-08-29 12:00:31 51°28.736 3°10.648 145.2 12.7 140.7 13.3
2001-08-29 12:01:31 51°28.577 3°10.864 144.2 12.4 140.7 12.9
2001-08-29 12:02:31 51°28.421 3°11.083 139.5 12.3 135.3 12.1
2001-08-29 12:03:31 51°28.267 3°11.307 141.7 12.5 137.9 11.2
2001-08-29 12:04:31 51°28.114 3°11.531 144 12.3 139.8 10.8
2001-08-29 12:05:31 51°27.969 3°11.765 140.5 12 135.2 10.3
2001-08-29 12:06:31 51°27.812 3°11.988 140.2 12.8 137.3 9.9
2001-08-29 12:07:31 51°27.659 3°12.211 142.2 12.6 139.4 9.8
2001-08-29 12:08:31 51°27.515 3°12.446 138.5 12 134.2 9.3
2001-08-29 12:09:31 51°27.365 3°12.675 140.7 12.5 137.7 9.2
2001-08-29 12:10:31 51°27.212 3°12.895 140.7 12.7 138.2 9
2001-08-29 12:11:31 51°27.054 3°13.102 145 12 141 8.7
2001-08-29 12:12:31 51°26.898 3°13.319 142.8 12.4 139.9 8.6
2001-08-29 12:13:31 51°26.744 3°13.532 141 11.9 136.5 8.5
2001-08-29 12:14:31 51°26.594 3°13.762 136.8 12.6 133.7 8.5
2001-08-29 12:15:31 51°26.449 3°13.989 140.5 12.2 136.8 8.2
2001-08-29 12:16:31 51°26.295 3°14.197 146.2 12.2 143.5 7.9
2001-08-29 12:17:31 51°26.157 3°14.432 135.3 12.5 131.3 7.7
2001-08-29 12:18:31 51°26.007 3°14.645 143.3 12.3 139.6 8
2001-08-29 12:19:31 51°25.857 3°14.867 139.2 12.3 136.7 8.7
2001-08-29 12:20:31 51°25.71 3°15.101 133.8 12.6 131.2 9
2001-08-29 12:21:31 51°25.617 3°15.395 114.2 12.5 109.7 9.2
2001-08-29 12:22:31 51°25.535 3°15.703 115.3 12.6 111.7 9.4
2001-08-29 12:23:31 51°25.451 3°16.013 118.3 12.7 114.4 10.2
2001-08-29 12:24:31 51°25.368 3°16.327 118 12.7 113.1 10.8
2001-08-29 12:25:31 51°25.273 3°16.631 119.5 12.8 117.1 11.4
2001-08-29 12:26:31 51°25.18 3°16.938 115.7 13 113.4 12.1
2001-08-29 12:27:31 51°25.134 3°17.269 106.8 12.9 104 12.5
2001-08-29 12:28:31 51°25.052 3°17.583 118.8 12.8 117 13.3
2001-08-29 12:29:31 51°24.952 3°17.881 117 12.7 116.7 13.4
2001-08-29 12:30:31 51°24.861 3°18.184 119.7 12.7 118.5 14.1
2001-08-29 12:31:31 51°24.756 3°18.474 120.5 12.7 119.5 15
2001-08-29 12:32:31 51°24.661 3°18.779 113.8 12.8 112.7 16.2
2001-08-29 12:33:31 51°24.571 3°19.083 119.7 12.6 118.4 16.7
2001-08-29 12:34:31 51°24.472 3°19.375 119 12.5 118.1 18.8
2001-08-29 12:35:31 51°24.379 3°19.674 114.8 12.6 113.8 18.9
2001-08-29 12:36:31 51°24.285 3°19.971 124.3 12.4 122.8 18.7
2001-08-29 12:37:32 51°24.094 3°20.094 174.7 12.8 177.1 16.2
2001-08-29 12:38:32 51°23.93 3°19.892 239.3 13.7 239.8 14.6
2001-08-29 12:39:32 51°23.808 3°19.58 236.2 13.9 236.8 13.5
2001-08-29 12:40:32 51°23.675 3°19.274 235.8 14.1 236.6 12.5
2001-08-29 12:41:32 51°23.552 3°18.954 239.5 14.1 239.7 11.6
2001-08-29 12:42:32 51°23.446 3°18.622 246.8 13.9 246.3 11
2001-08-29 12:43:30 51°23.37 3°18.284 253.3 14 252.4 10.6
2001-08-29 12:44:30 51°23.321 3°17.919 265 14.1 262.7 10.1
2001-08-29 12:45:32 51°23.293 3°17.536 264.5 14.1 263 9.5
2001-08-29 12:46:32 51°23.263 3°17.165 265.5 14 263.7 9.2
2001-08-29 12:47:32 51°23.232 3°16.792 262.5 14.2 261.4 9
2001-08-29 12:48:32 51°23.209 3°16.417 268.3 14.2 266.2 8.9
2001-08-29 12:49:32 51°23.187 3°16.042 263.7 14.2 262.9 8.7
2001-08-29 12:50:32 51°23.164 3°15.665 264.8 14.3 264 8.9
2001-08-29 12:51:32 51°23.142 3°15.286 265 14.3 264 9.3
2001-08-29 12:52:32 51°23.114 3°14.906 262.8 14.4 262.5 9.9
2001-08-29 12:53:32 51°23.087 3°14.526 263.5 14.3 262.8 10.7
2001-08-29 12:54:32 51°23.06 3°14.149 264.8 14.3 263.7 11
2001-08-29 12:55:32 51°23.036 3°13.77 264.7 14.3 264.2 10.9
2001-08-29 12:56:32 51°23.003 3°13.393 261 14.3 260.5 11.3
2001-08-29 12:57:32 51°22.972 3°13.014 262 14.3 262.1 11.7
2001-08-29 12:58:32 51°22.938 3°12.638 259.5 14.2 259.4 12.1
2001-08-29 12:59:32 51°22.887 3°12.269 260 14.2 259.3 12.9
2001-08-29 13:00:32 51°22.851 3°11.897 261.7 14.1 261.2 13.5
2001-08-29 13:01:32 51°22.802 3°11.531 259.3 14 259.2 14.1
2001-08-29 13:02:32 51°22.758 3°11.166 259 13.9 259.3 14.4
2001-08-29 13:03:32 51°22.718 3°10.798 260.5 14 261 14.7
2001-08-29 13:04:32 51°22.67 3°10.433 255.2 14 255.8 15.2
2001-08-29 13:05:32 51°22.612 3°10.07 254.7 14 255.4 16.8
2001-08-29 13:06:32 51°22.552 3°9.712 255.2 14 255.4 13.2
2001-08-29 13:07:32 51°22.493 3°9.347 253.8 14.2 254.2 13.2
2001-08-29 13:08:32 51°22.426 3°8.987 254 14.1 253.9 13
2001-08-29 13:09:32 51°22.366 3°8.624 255.3 14.2 255.7 12.6
2001-08-29 13:10:32 51°22.297 3°8.265 253.5 14.1 253.2 12.4
2001-08-29 13:11:32 51°22.226 3°7.906 253.5 14.1 252.8 12.2
2001-08-29 13:12:32 51°22.157 3°7.545 252 14.2 251.9 12.1
2001-08-29 13:13:32 51°22.089 3°7.185 254.8 14.1 254 12.1
2001-08-29 13:14:32 51°22.021 3°6.826 252.8 14.1 252.3 11.8
2001-08-29 13:15:32 51°21.944 3°6.474 252.5 14 252.2 11.6
2001-08-29 13:16:32 51°21.872 3°6.12 252.5 14 252.7 11.4
2001-08-29 13:17:32 51°21.793 3°5.771 251 14 250.3 11.3
2001-08-29 13:18:32 51°21.709 3°5.424 250.3 14 249.7 11
2001-08-29 13:19:32 51°21.633 3°5.071 248.3 14.1 247.9 10.9
2001-08-29 13:20:32 51°21.545 3°4.726 250.7 14 249.7 10.7
2001-08-29 13:21:32 51°21.477 3°4.37 252.2 14.1 251.3 10.5
2001-08-29 13:22:32 51°21.398 3°4.018 252.7 14.1 251.3 10.5
2001-08-29 13:23:32 51°21.312 3°3.671 246.7 14 246.1 10.5
2001-08-29 13:24:32 51°21.235 3°3.319 251.7 14 250.9 10.5
2001-08-29 13:25:32 51°21.152 3°2.972 248.3 14 247.4 10.5
2001-08-29 13:26:32 51°21.067 3°2.627 246.7 13.9 245.9 10.6
2001-08-29 13:27:32 51°20.98 3°2.284 253.3 14 252.3 10.6
2001-08-29 13:28:32 51°20.909 3°1.93 249.8 14 248.4 10.6
2001-08-29 13:29:32 51°20.819 3°1.585 252.5 14.1 250.4 10.4
2001-08-29 13:30:32 51°20.741 3°1.232 249.5 14.1 248.3 10.2
2001-08-29 13:31:32 51°20.657 3°0.882 251.7 14.1 250.3 10.2
2001-08-29 13:32:32 51°20.574 3°0.531 251 14.2 249.5 10.3
2001-08-29 13:33:32 51°20.489 3°0.182 250.7 14.1 249.1 10.3
2001-08-29 13:34:32 51°20.398 2°59.836 249.2 14.1 247.4 10.3
2001-08-29 13:35:32 51°20.312 2°59.487 249 14.2 247.5 10.5
2001-08-29 13:36:32 51°20.229 2°59.135 249 14.2 247.6 10.4
2001-08-29 13:37:32 51°20.145 2°58.784 250.8 14.2 249.3 10.5
2001-08-29 13:38:32 51°20.058 2°58.435 249.7 14.1 248.3 10.6
2001-08-29 13:39:32 51°19.971 2°58.087 250.5 14.2 249.3 10.6
2001-08-29 13:40:32 51°19.884 2°57.738 247.7 14.1 246.5 10.7
2001-08-29 13:41:32 51°19.798 2°57.39 253.5 14.1 251.2 10.7
2001-08-29 13:42:32 51°19.712 2°57.043 250.8 14 249 10.9
2001-08-29 13:43:32 51°19.627 2°56.696 250.5 14 248.8 10.9
2001-08-29 13:44:32 51°19.541 2°56.349 249.7 14 248.7 11.1
2001-08-29 13:45:32 51°19.457 2°56.001 251.5 14 249.7 11.2
2001-08-29 13:46:32 51°19.37 2°55.658 250.5 13.9 249.3 11.3
2001-08-29 13:47:32 51°19.288 2°55.312 249.5 14 247.6 11.4
2001-08-29 13:48:32 51°19.202 2°54.966 250.8 14 249.2 11.4
2001-08-29 13:49:32 51°19.12 2°54.617 249.8 14 248.4 11.6
2001-08-29 13:50:32 51°19.035 2°54.272 250.8 14 249.3 11.5
2001-08-29 13:51:32 51°18.948 2°53.925 247.7 14.1 246.7 11.4
2001-08-29 13:52:32 51°18.862 2°53.576 250.5 14.1 248.9 11.4
2001-08-29 13:53:32 51°18.776 2°53.228 251.5 14 249.3 11.3
2001-08-29 13:54:32 51°18.695 2°52.875 252.8 14.2 251 11.2
2001-08-29 13:55:32 51°18.603 2°52.533 234.2 13.9 234 11
2001-08-29 13:56:32 51°18.422 2°52.309 208 13.5 210.2 10.9
2001-08-29 13:57:32 51°18.201 2°52.233 181 13.3 183.4 10.4
2001-08-29 13:58:32 51°17.974 2°52.232 175.5 13.7 177.7 10.2
2001-08-29 13:59:32 51°17.749 2°52.251 172.3 13.7 174.4 10.1
2001-08-29 14:00:32 51°17.527 2°52.305 165.3 13.4 167.9 10
2001-08-29 14:01:32 51°17.315 2°52.41 156.7 13.6 158.3 9.8
2001-08-29 14:02:32 51°17.115 2°52.56 150.3 13.2 152.4 9.3
2001-08-29 14:03:32 51°16.917 2°52.71 153.5 13 154.8 9.1
2001-08-29 14:04:32 51°16.715 2°52.86 154 13.5 155.8 10.5
2001-08-29 14:05:32 51°16.506 2°52.993 155.8 13.4 157.9 11.7
2001-08-29 14:06:32 51°16.303 2°53.136 153.8 13.3 155.5 12
2001-08-29 14:07:32 51°16.104 2°53.29 149.7 13.2 151.4 11.7
2001-08-29 14:08:32 51°15.911 2°53.459 150 13.3 151.7 11.4
2001-08-29 14:09:32 51°15.721 2°53.635 148.2 12.7 149.7 10.7
2001-08-29 14:10:32 51°15.528 2°53.812 148.5 13.4 150.2 9.8
2001-08-29 14:11:32 51°15.332 2°53.972 150.3 13.3 152.4 9
2001-08-29 14:12:32 51°15.142 2°54.144 148.2 12.7 149.9 8.4
2001-08-29 14:13:32 51°14.952 2°54.316 148 13.3 149.9 8.1
2001-08-29 14:14:32 51°14.766 2°54.507 141.7 13.6 143.9 9
2001-08-29 14:15:32 51°14.592 2°54.707 141 12.6 143 8.9
2001-08-29 14:16:32 51°14.433 2°54.926 133.2 12.1 135.9 9.9
2001-08-29 14:17:32 51°14.302 2°55.183 130.3 12.7 128.7 9.8
2001-08-29 14:18:32 51°14.162 2°55.382 151 9 148.9 9.6
2001-08-29 14:19:32 51°14.061 2°55.453 159.3 5.6 157.2 9.8
2001-08-29 14:20:34 51°13.976 2°55.511 157.7 6.6 156.1 9.7
2001-08-29 14:21:36 51°13.854 2°55.602 155.3 7.3 154.3 9.7
2001-08-29 14:22:36 51°13.775 2°55.681 140.3 4.5 140 9.7
2001-08-29 14:23:36 51°13.735 2°55.752 130.5 3.1 128.9 9.7
2001-08-29 14:24:36 51°13.709 2°55.81 124.5 2.5 122.4 9.7
2001-08-29 14:25:36 51°13.69 2°55.868 113.8 2.3 112.6 -999
2001-08-29 14:26:36 51°13.676 2°55.92 119.3 1.8 114.5 -999
2001-08-29 14:27:36 51°13.677 2°55.918 137.2 0.2 264.2 -999
2001-08-29 14:28:36 51°13.677 2°55.924 129.3 0.1 56.2 -999
2001-08-29 14:29:36 51°13.677 2°55.924 129.2 0.1 58 -999
2001-08-29 14:30:36 51°13.676 2°55.924 129.3   330.5 -999